createdAt,value
2022-11-30T00:03:53.289Z,7.9
2022-11-30T00:33:10.423Z,7.8
2022-11-30T01:02:33.276Z,7.8
2022-11-30T01:31:51.339Z,7.8
2022-11-30T02:01:06.497Z,7.8
2022-11-30T02:30:21.748Z,7.6
2022-11-30T02:59:42.206Z,7.3
2022-11-30T03:28:54.187Z,7.2
2022-11-30T03:58:12.171Z,7.1
2022-11-30T04:27:36.130Z,7.1
2022-11-30T04:56:53.649Z,7.1
2022-11-30T05:26:14.988Z,7.1
2022-11-30T05:55:29.287Z,7.1
2022-11-30T06:24:43.386Z,7.1
2022-11-30T06:53:52.364Z,7.1
2022-11-30T07:23:06.288Z,7.1
2022-11-30T07:52:20.639Z,7.1
2022-11-30T08:21:44.284Z,7.2
2022-11-30T08:51:04.934Z,7.3
2022-11-30T09:20:20.750Z,7.6
2022-11-30T09:49:14.724Z,8
2022-11-30T10:18:26.661Z,8.1
2022-11-30T10:47:34.455Z,8.1
2022-11-30T11:16:54.688Z,8.1
2022-11-30T11:46:12.790Z,8.2
2022-11-30T12:15:30.673Z,8.5
2022-11-30T12:44:42.881Z,8.4
2022-11-30T13:13:28.047Z,8.3
2022-11-30T13:42:39.359Z,8.2
2022-11-30T14:11:36.335Z,8.1
2022-11-30T14:40:45.888Z,8
2022-11-30T15:09:54.995Z,7.9
2022-11-30T15:39:04.326Z,7.8
2022-11-30T16:08:22.129Z,7.7
2022-11-30T16:37:30.714Z,7.7
2022-11-30T17:07:03.238Z,7.6
2022-11-30T17:35:44.418Z,7.6
2022-11-30T18:05:06.566Z,7.5
2022-11-30T18:34:28.205Z,7.5
2022-11-30T19:03:38.473Z,7.4
2022-11-30T19:33:01.511Z,7.3
2022-11-30T20:02:23.213Z,7.2
2022-11-30T20:31:38.088Z,7.2
2022-11-30T21:00:58.115Z,7.1
2022-11-30T21:30:05.419Z,7
2022-11-30T21:59:30.777Z,7
2022-11-30T22:28:55.536Z,6.9
2022-11-30T22:58:04.388Z,6.8
2022-11-30T23:27:18.850Z,6.5
2022-11-30T23:56:29.689Z,6.2
